Time;durP1;ratioP1;P1;durP2;ratioP2;P2;SDS_P1;SDS_P2;PMS_P1;PMS_P2;Temp;Humidity;BMP_temperature;BMP_pressure;BME280_temperature;BME280_humidity;BME280_pressure;Samples;Min_cycle;Max_cycle;Signal;HPM_P1;HPM_P2
2022/10/18 00:01:06;;;;;;;36.95;35.55;;;8.50;78.90;;;;;;5009354;28;20479;-72
2022/10/18 00:03:33;;;;;;;34.65;33.35;;;8.50;78.90;;;;;;5009425;28;20026;-72
2022/10/18 00:05:59;;;;;;;37.50;36.10;;;8.40;78.80;;;;;;5009441;28;20298;-72
2022/10/18 00:08:25;;;;;;;;;;;8.40;78.80;;;;;;5027612;28;20032;-72
2022/10/18 00:10:52;;;;;;;35.78;34.45;;;8.40;78.90;;;;;;5027114;28;19997;-72
2022/10/18 00:13:18;;;;;;;35.15;33.85;;;8.40;78.80;;;;;;5009650;28;20034;-72
2022/10/18 00:15:53;;;;;;;36.65;35.25;;;8.40;78.90;;;;;;5009196;28;20029;-73
2022/10/18 00:18:19;;;;;;;36.63;35.22;;;8.30;78.90;;;;;;5009212;28;20035;-72
2022/10/18 00:20:45;;;;;;;38.28;36.88;;;8.30;79.00;;;;;;5026978;28;20075;-72
2022/10/18 00:23:10;;;;;;;36.90;35.50;;;8.30;79.10;;;;;;5026971;28;20041;-72
2022/10/18 00:25:36;;;;;;;37.88;36.47;;;8.20;79.00;;;;;;5030056;28;20427;-72
2022/10/18 00:28:02;;;;;;;36.60;35.22;;;8.20;79.00;;;;;;5030805;28;20388;-72
2022/10/18 00:30:28;;;;;;;35.85;34.55;;;8.20;79.00;;;;;;5013042;28;20046;-73
2022/10/18 00:32:53;;;;;;;36.72;35.33;;;8.20;78.90;;;;;;4996682;28;20402;-72
2022/10/18 00:35:19;;;;;;;37.35;35.95;;;8.20;78.90;;;;;;4996503;28;20060;-72
2022/10/18 00:37:45;;;;;;;37.78;36.38;;;8.20;78.90;;;;;;4996717;28;20440;-72
2022/10/18 00:40:10;;;;;;;35.35;34.05;;;8.20;78.90;;;;;;5013021;28;20040;-72
2022/10/18 00:42:37;;;;;;;37.05;35.65;;;8.20;78.90;;;;;;5013010;28;20056;-72
2022/10/18 00:45:13;;;;;;;;;;;8.10;78.90;;;;;;5013484;28;20159;-72
2022/10/18 00:47:39;;;;;;;36.53;35.13;;;8.10;78.90;;;;;;5030408;28;19915;-72
2022/10/18 00:50:07;;;;;;;35.63;34.33;;;8.10;78.80;;;;;;4996307;28;20025;-72
2022/10/18 00:53:00;;;;;;;37.92;36.53;;;8.00;78.70;;;;;;5012578;28;20361;-72
2022/10/18 00:55:27;;;;;;;35.38;34.08;;;8.00;78.80;;;;;;5023841;28;20049;-72
2022/10/18 00:57:53;;;;;;;37.40;36.00;;;7.90;78.80;;;;;;5030242;28;20025;-72
2022/10/18 01:00:19;;;;;;;38.05;36.65;;;7.80;78.90;;;;;;5012494;28;20025;-72
2022/10/18 01:02:46;;;;;;;40.28;38.78;;;7.80;79.10;;;;;;5012722;28;20056;-72
2022/10/18 01:05:16;;;;;;;38.88;37.47;;;7.80;79.10;;;;;;5012423;28;20107;-72
2022/10/18 01:08:13;;;;;;;36.15;34.83;;;7.80;79.00;;;;;;5030148;28;20062;-72
2022/10/18 01:11:07;;;;;;;35.42;34.13;;;7.80;79.00;;;;;;5012689;28;20507;-72
2022/10/18 01:13:42;;;;;;;37.10;35.70;;;7.80;79.00;;;;;;5029985;28;20044;-72
2022/10/18 01:16:35;;;;;;;36.58;35.17;;;7.80;78.90;;;;;;5030016;28;20041;-72
2022/10/18 01:19:33;;;;;;;36.80;35.40;;;7.70;78.80;;;;;;5012046;28;20426;-72
2022/10/18 01:22:13;;;;;;;38.63;37.22;;;7.70;78.90;;;;;;5030088;28;20026;-72
2022/10/18 01:25:01;;;;;;;35.90;34.60;;;7.60;78.80;;;;;;5011993;28;20060;-72
2022/10/18 01:27:44;;;;;;;37.20;35.80;;;7.60;78.90;;;;;;5012027;28;20076;-72
2022/10/18 01:30:40;;;;;;;37.90;36.50;;;7.50;78.80;;;;;;5012020;28;20029;-72
2022/10/18 01:33:39;;;;;;;35.40;34.10;;;7.50;78.80;;;;;;5029657;28;20036;-72
2022/10/18 01:36:20;;;;;;;35.70;34.40;;;7.60;78.80;;;;;;5027771;28;20045;-73
2022/10/18 01:38:50;;;;;;;36.60;35.20;;;7.50;78.80;;;;;;5029556;28;20471;-72
2022/10/18 01:41:18;;;;;;;34.20;32.90;;;7.40;78.80;;;;;;5011597;28;20064;-73
2022/10/18 01:43:47;;;;;;;36.53;35.17;;;7.40;78.90;;;;;;5029436;28;20415;-72
2022/10/18 01:46:17;;;;;;;36.22;34.92;;;7.30;79.00;;;;;;5011913;28;20470;-72
2022/10/18 01:48:43;;;;;;;36.17;34.88;;;7.40;79.00;;;;;;5011656;28;20389;-72
2022/10/18 01:51:10;;;;;;;40.80;39.30;;;7.40;78.90;;;;;;5011576;28;20037;-75
2022/10/18 01:53:35;;;;;;;;;;;7.40;78.90;;;;;;5029518;28;20124;-76
2022/10/18 01:56:10;;;;;;;38.47;37.08;;;7.40;78.80;;;;;;5044508;28;20003;-75
2022/10/18 01:59:13;;;;;;;39.20;37.75;;;7.40;78.60;;;;;;5028988;28;20036;-75
2022/10/18 02:01:54;;;;;;;36.97;35.58;;;7.50;78.60;;;;;;5001845;28;20064;-75
2022/10/18 02:04:38;;;;;;;37.03;35.63;;;7.50;78.60;;;;;;5011078;28;20033;-75
2022/10/18 02:07:38;;;;;;;38.50;37.10;;;7.50;78.60;;;;;;5011157;28;20025;-75
2022/10/18 02:10:33;;;;;;;39.30;37.83;;;7.50;78.70;;;;;;5024143;28;20483;-75
2022/10/18 02:12:59;;;;;;;38.50;37.10;;;7.50;78.80;;;;;;5028890;28;20025;-76
2022/10/18 02:15:38;;;;;;;40.40;38.90;;;7.40;78.70;;;;;;5010935;28;20041;-75
2022/10/18 02:18:12;;;;;;;40.63;39.13;;;7.40;78.80;;;;;;5028684;28;20511;-75
2022/10/18 02:20:38;;;;;;;38.03;36.63;;;7.50;78.80;;;;;;5010939;28;20499;-75
2022/10/18 02:23:06;;;;;;;40.20;38.70;;;7.40;78.70;;;;;;5029035;28;20033;-76
2022/10/18 02:25:34;;;;;;;36.85;35.45;;;7.40;79.10;;;;;;5010753;28;20034;-75
2022/10/18 02:28:01;;;;;;;38.47;37.08;;;7.30;78.70;;;;;;5028423;28;20037;-75
2022/10/18 02:30:36;;;;;;;39.08;37.67;;;7.30;78.90;;;;;;5028568;28;20027;-75
2022/10/18 02:33:20;;;;;;;36.75;35.35;;;7.30;78.90;;;;;;5010682;28;20076;-75
2022/10/18 02:35:59;;;;;;;35.75;34.45;;;7.30;78.90;;;;;;5028398;28;20030;-75
2022/10/18 02:38:27;;;;;;;37.03;35.63;;;7.20;78.80;;;;;;5028177;28;20045;-72
2022/10/18 02:40:52;;;;;;;34.95;33.65;;;7.20;78.70;;;;;;4994345;28;20109;-72
2022/10/18 02:43:18;;;;;;;36.53;35.15;;;7.10;78.70;;;;;;5010527;28;20073;-72
2022/10/18 02:45:44;;;;;;;41.97;40.47;;;7.10;78.90;;;;;;5028258;28;20396;-72
2022/10/18 02:48:09;;;;;;;41.05;39.55;;;7.00;78.80;;;;;;5010413;28;20033;-72
2022/10/18 02:50:35;;;;;;;39.88;38.38;;;7.00;78.70;;;;;;5010356;28;20313;-72
2022/10/18 02:53:01;;;;;;;41.72;40.22;;;7.00;78.60;;;;;;4994018;28;20100;-72
2022/10/18 02:55:27;;;;;;;40.00;38.50;;;7.00;78.60;;;;;;5010402;28;20136;-72
2022/10/18 02:57:52;;;;;;;39.40;37.90;;;7.00;78.60;;;;;;5010291;28;20079;-72
2022/10/18 03:00:18;;;;;;;38.67;37.25;;;7.00;78.60;;;;;;5010381;28;20639;-72
2022/10/18 03:02:44;;;;;;;38.20;36.80;;;6.90;78.60;;;;;;5010086;28;20030;-72
2022/10/18 03:05:10;;;;;;;38.05;36.65;;;6.90;78.80;;;;;;5027992;28;20025;-72
2022/10/18 03:07:35;;;;;;;38.40;37.00;;;6.80;78.80;;;;;;5027770;28;20415;-72
2022/10/18 03:10:01;;;;;;;41.38;39.88;;;6.80;78.80;;;;;;5010275;28;20097;-72
2022/10/18 03:12:27;;;;;;;39.90;38.40;;;6.90;78.80;;;;;;5027886;28;20059;-72
2022/10/18 03:14:52;;;;;;;38.28;36.88;;;6.90;78.70;;;;;;5027711;28;20037;-73
2022/10/18 03:17:18;;;;;;;38.75;37.35;;;6.80;78.60;;;;;;5010270;28;20502;-72
2022/10/18 03:19:44;;;;;;;36.45;35.10;;;6.90;78.70;;;;;;5027705;28;20032;-72
2022/10/18 03:22:09;;;;;;;35.50;34.20;;;6.80;78.70;;;;;;5009929;28;20021;-72
2022/10/18 03:24:35;;;;;;;38.00;36.60;;;6.70;78.70;;;;;;4993643;28;20036;-72
2022/10/18 03:27:01;;;;;;;41.63;40.13;;;6.60;78.80;;;;;;5027792;28;20395;-72
2022/10/18 03:29:27;;;;;;;37.50;36.10;;;6.60;78.90;;;;;;5010010;28;20539;-72
2022/10/18 03:31:53;;;;;;;39.25;37.80;;;6.60;78.80;;;;;;5009961;28;20111;-72
2022/10/18 03:34:18;;;;;;;38.38;36.97;;;6.70;78.80;;;;;;5009774;28;20025;-75
2022/10/18 03:36:44;;;;;;;38.45;37.05;;;6.70;78.80;;;;;;5009681;28;20072;-75
2022/10/18 03:39:11;;;;;;;40.65;39.15;;;6.60;78.70;;;;;;5022676;28;20527;-75
2022/10/18 03:41:37;;;;;;;38.60;37.20;;;6.60;78.80;;;;;;5006425;28;20022;-76
2022/10/18 03:44:02;;;;;;;39.35;37.88;;;6.60;78.90;;;;;;4989996;28;20397;-75
2022/10/18 03:46:28;;;;;;;38.55;37.15;;;6.60;78.90;;;;;;5007786;28;20038;-75
2022/10/18 03:48:54;;;;;;;39.88;38.38;;;6.60;78.80;;;;;;5006216;28;20437;-67
2022/10/18 03:51:19;;;;;;;39.50;38.00;;;6.60;78.80;;;;;;5007590;28;20037;-75
2022/10/18 03:53:45;;;;;;;39.28;37.83;;;6.60;78.80;;;;;;5006219;28;20038;-75
2022/10/18 03:56:11;;;;;;;39.45;37.97;;;6.60;78.80;;;;;;5006115;28;20455;-75
2022/10/18 03:58:36;;;;;;;38.78;37.38;;;6.50;78.80;;;;;;5022710;28;20069;-75
2022/10/18 04:01:02;;;;;;;39.03;37.63;;;6.60;78.90;;;;;;5010133;28;20508;-75
2022/10/18 04:03:28;;;;;;;39.15;37.72;;;6.60;78.80;;;;;;5010206;28;20032;-75
2022/10/18 04:05:53;;;;;;;40.45;38.95;;;6.60;79.30;;;;;;5011233;28;20395;-76
2022/10/18 04:08:19;;;;;;;36.97;35.58;;;6.60;78.80;;;;;;5010152;28;20038;-75
2022/10/18 04:10:45;;;;;;;38.75;37.35;;;6.50;78.80;;;;;;5010164;28;20034;-75
2022/10/18 04:13:11;;;;;;;38.50;37.08;;;6.50;78.70;;;;;;5010034;28;20108;-75
2022/10/18 04:15:36;;;;;;;37.42;36.03;;;6.50;78.80;;;;;;5010079;28;20033;-75
2022/10/18 04:18:02;;;;;;;38.83;37.40;;;6.50;78.90;;;;;;5010044;28;20084;-75
2022/10/18 04:20:28;;;;;;;39.65;38.15;;;6.50;78.80;;;;;;5011219;28;20041;-75
2022/10/18 04:22:56;;;;;;;39.50;38.03;;;6.50;78.80;;;;;;5011232;28;20025;-75
2022/10/18 04:25:22;;;;;;;39.70;38.20;;;6.50;78.90;;;;;;5009979;28;20026;-75
2022/10/18 04:27:48;;;;;;;39.55;38.05;;;6.50;78.80;;;;;;5011083;28;20060;-75
2022/10/18 04:30:14;;;;;;;39.83;38.33;;;6.40;78.80;;;;;;5009770;28;20041;-75
2022/10/18 04:32:39;;;;;;;38.47;37.08;;;6.40;78.80;;;;;;5009699;28;20030;-75
2022/10/18 04:35:08;;;;;;;40.10;38.60;;;6.30;78.90;;;;;;4993531;28;20408;-75
2022/10/18 04:37:34;;;;;;;38.70;37.30;;;6.40;79.00;;;;;;5010849;28;20554;-75
2022/10/18 04:40:00;;;;;;;;;;;6.40;79.00;;;;;;5029952;28;20131;-75
2022/10/18 04:42:26;;;;;;;38.72;37.30;;;6.40;78.90;;;;;;5045904;28;19909;-75
2022/10/18 04:44:51;;;;;;;39.72;38.22;;;6.40;78.70;;;;;;5013057;28;20034;-75
2022/10/18 04:47:17;;;;;;;38.08;36.67;;;6.40;78.70;;;;;;5030453;28;20365;-75
2022/10/18 04:49:43;;;;;;;37.00;35.60;;;6.40;78.70;;;;;;5012515;28;20380;-76
2022/10/18 04:52:09;;;;;;;42.90;41.30;;;6.40;78.70;;;;;;5030330;28;20042;-75
2022/10/18 04:54:34;;;;;;;39.60;38.10;;;6.40;78.70;;;;;;5030155;28;20079;-75
2022/10/18 04:57:00;;;;;;;42.33;40.75;;;6.40;78.80;;;;;;5028942;28;20037;-75
2022/10/18 04:59:26;;;;;;;42.72;41.13;;;6.40;78.90;;;;;;5029972;28;20055;-76
2022/10/18 05:01:52;;;;;;;37.75;36.35;;;6.40;78.90;;;;;;5030191;28;20037;-75
2022/10/18 05:04:17;;;;;;;38.65;37.25;;;6.40;79.00;;;;;;5030117;28;20029;-75
2022/10/18 05:06:43;;;;;;;38.58;37.15;;;6.40;78.90;;;;;;5012375;28;20033;-75
2022/10/18 05:09:09;;;;;;;40.35;38.85;;;6.40;78.90;;;;;;5012390;28;20037;-75
2022/10/18 05:11:34;;;;;;;39.15;37.70;;;6.40;78.90;;;;;;5029775;28;20026;-76
2022/10/18 05:14:00;;;;;;;39.70;38.20;;;6.40;78.80;;;;;;5012375;28;20026;-74
2022/10/18 05:16:27;;;;;;;38.30;36.90;;;6.40;78.70;;;;;;5012334;28;20516;-75
2022/10/18 05:18:53;;;;;;;39.33;37.83;;;6.40;78.70;;;;;;5011789;28;20088;-75
2022/10/18 05:21:19;;;;;;;;;;;6.40;78.70;;;;;;5012508;28;20029;-75
2022/10/18 05:23:45;;;;;;;38.33;36.85;;;6.40;78.90;;;;;;5045258;28;20280;-75
2022/10/18 05:26:10;;;;;;;39.15;37.72;;;6.40;78.90;;;;;;5011850;28;20060;-75
2022/10/18 05:28:36;;;;;;;39.83;38.33;;;6.30;78.90;;;;;;5011753;28;20029;-75
2022/10/18 05:31:06;;;;;;;38.53;37.13;;;6.30;78.80;;;;;;5029478;28;20458;-75
2022/10/18 05:33:33;;;;;;;39.92;38.42;;;6.30;78.80;;;;;;5028911;28;20052;-75
2022/10/18 05:35:59;;;;;;;39.53;38.03;;;6.30;78.90;;;;;;5029803;28;20357;-75
2022/10/18 05:38:25;;;;;;;38.85;37.45;;;6.30;78.90;;;;;;5029124;28;20038;-75
2022/10/18 05:40:51;;;;;;;41.55;40.05;;;6.30;78.90;;;;;;5029384;28;20026;-74
2022/10/18 05:43:17;;;;;;;39.75;38.25;;;6.30;78.90;;;;;;5011599;28;20396;-75
2022/10/18 05:45:51;;;;;;;40.35;38.85;;;6.30;78.90;;;;;;5029403;28;20300;-75
2022/10/18 05:48:17;;;;;;;44.53;42.92;;;6.30;78.90;;;;;;5011461;28;20029;-76
2022/10/18 05:50:43;;;;;;;43.15;41.55;;;6.30;78.90;;;;;;5029152;28;20040;-75
2022/10/18 05:53:09;;;;;;;41.80;40.30;;;6.30;78.90;;;;;;5011035;28;20045;-75
2022/10/18 05:55:36;;;;;;;43.40;41.80;;;6.30;78.80;;;;;;5028839;28;20095;-75
2022/10/18 05:58:02;;;;;;;45.95;44.25;;;6.40;78.80;;;;;;5028814;28;20460;-76
2022/10/18 06:00:28;;;;;;;42.85;41.25;;;6.40;78.80;;;;;;5011093;28;20036;-75
2022/10/18 06:02:54;;;;;;;45.83;44.13;;;6.40;78.70;;;;;;5011462;28;20030;-75
2022/10/18 06:05:20;;;;;;;;;;;6.40;78.70;;;;;;5029401;28;20057;-74
2022/10/18 06:07:46;;;;;;;41.80;40.25;;;6.40;78.60;;;;;;5010949;28;19979;-75
2022/10/18 06:10:11;;;;;;;44.85;43.00;;;6.40;78.60;;;;;;5010737;28;20029;-76
2022/10/18 06:12:37;;;;;;;42.50;40.90;;;6.40;78.60;;;;;;4994620;28;20384;-75
2022/10/18 06:15:03;;;;;;;42.58;40.97;;;6.30;78.50;;;;;;4994290;28;20055;-75
2022/10/18 06:17:29;;;;;;;43.80;42.20;;;6.30;78.50;;;;;;5028625;28;20029;-75
2022/10/18 06:19:55;;;;;;;43.60;42.00;;;6.30;78.60;;;;;;5028571;28;20025;-76
2022/10/18 06:22:20;;;;;;;43.58;41.97;;;6.30;78.60;;;;;;5028071;28;20506;-75
2022/10/18 06:24:46;;;;;;;45.45;43.75;;;6.20;78.60;;;;;;5027647;28;20034;-75
2022/10/18 06:27:12;;;;;;;42.92;41.33;;;6.20;78.70;;;;;;5011055;28;20522;-75
2022/10/18 06:29:39;;;;;;;45.58;43.88;;;6.20;78.60;;;;;;5010241;28;20032;-76
2022/10/18 06:32:06;;;;;;;43.95;42.35;;;6.20;78.60;;;;;;5028361;28;20038;-75
2022/10/18 06:34:33;;;;;;;43.47;41.88;;;6.20;78.60;;;;;;5010421;28;20028;-75
2022/10/18 06:36:58;;;;;;;44.50;42.88;;;6.20;78.70;;;;;;5027652;28;20356;-76
2022/10/18 06:39:25;;;;;;;45.17;43.47;;;6.20;78.80;;;;;;5010005;28;20037;-76
2022/10/18 06:41:50;;;;;;;43.03;41.42;;;6.20;78.70;;;;;;5010151;28;20030;-75
2022/10/18 06:44:16;;;;;;;42.97;41.38;;;6.20;78.70;;;;;;5027381;28;20030;-75
2022/10/18 06:46:43;;;;;;;46.50;44.80;;;6.20;78.70;;;;;;5009381;28;20040;-72
2022/10/18 06:49:10;;;;;;;49.58;47.78;;;6.20;78.70;;;;;;5027710;28;20108;-76
2022/10/18 06:51:35;;;;;;;;;;;6.20;78.70;;;;;;5028135;28;20087;-75
2022/10/18 06:54:02;;;;;;;47.38;45.67;;;6.20;78.70;;;;;;5027453;28;19908;-75
2022/10/18 06:56:27;;;;;;;;;;;6.20;78.70;;;;;;5010054;28;20041;-75
2022/10/18 06:58:53;;;;;;;44.92;43.25;;;6.30;78.70;;;;;;5043871;28;20348;-76
2022/10/18 07:01:19;;;;;;;48.50;46.70;;;6.20;78.60;;;;;;5027090;28;20029;-74
2022/10/18 07:03:47;;;;;;;49.30;47.50;;;6.30;78.60;;;;;;5027191;28;20132;-75
2022/10/18 07:06:15;;;;;;;51.13;49.22;;;6.30;78.60;;;;;;5026777;28;20040;-76
2022/10/18 07:08:42;;;;;;;54.25;52.25;;;6.30;78.70;;;;;;5027082;28;20026;-74
2022/10/18 07:11:14;;;;;;;51.40;49.50;;;6.40;78.80;;;;;;5027008;28;20045;-75
2022/10/18 07:13:40;;;;;;;55.05;53.05;;;6.50;78.80;;;;;;5008902;28;20041;-74
2022/10/18 07:16:13;;;;;;;57.22;55.13;;;6.50;78.80;;;;;;5009827;28;20460;-74
2022/10/18 07:18:44;;;;;;;54.97;52.97;;;6.60;78.70;;;;;;5026721;28;20021;-75
2022/10/18 07:21:13;;;;;;;58.50;56.40;;;6.70;78.80;;;;;;5027163;28;20485;-76
2022/10/18 07:23:42;;;;;;;56.88;54.78;;;6.70;78.70;;;;;;5027512;28;20095;-75
2022/10/18 07:26:21;;;;;;;55.15;53.15;;;6.80;78.80;;;;;;5026700;28;20036;-74
2022/10/18 07:28:51;;;;;;;57.08;54.97;;;6.90;79.20;;;;;;5027514;28;20483;-75
2022/10/18 07:31:17;;;;;;;57.80;55.70;;;7.10;79.30;;;;;;5027222;28;20033;-75
2022/10/18 07:33:42;;;;;;;56.78;54.67;;;7.20;79.10;;;;;;5026032;28;20033;-75
2022/10/18 07:36:10;;;;;;;59.03;56.83;;;7.30;79.20;;;;;;5008993;28;20106;-75
2022/10/18 07:38:36;;;;;;;57.35;55.25;;;7.50;79.50;;;;;;5008494;28;20119;-75
2022/10/18 07:41:05;;;;;;;58.35;56.17;;;7.80;79.60;;;;;;5027065;28;20064;-75
2022/10/18 07:43:31;;;;;;;58.25;56.05;;;8.10;79.90;;;;;;5026789;28;20037;-74
2022/10/18 07:45:59;;;;;;;56.95;54.78;;;8.50;80.10;;;;;;5027502;28;20034;-72
2022/10/18 07:48:24;;;;;;;59.03;56.83;;;8.80;79.80;;;;;;5027172;28;20029;-72
2022/10/18 07:50:50;;;;;;;54.50;52.40;;;9.00;79.50;;;;;;5007966;28;20021;-74
2022/10/18 07:53:16;;;;;;;57.13;54.92;;;9.10;79.40;;;;;;5026278;28;20475;-75
2022/10/18 07:55:43;;;;;;;55.83;53.72;;;9.20;79.70;;;;;;5026211;28;20062;-74
2022/10/18 07:58:09;;;;;;;48.53;46.70;;;9.40;79.80;;;;;;5026435;28;20092;-76
2022/10/18 08:00:35;;;;;;;50.15;48.25;;;9.80;80.60;;;;;;5030771;28;20026;-73
2022/10/18 08:03:01;;;;;;;52.80;50.80;;;10.30;80.90;;;;;;5036567;28;20040;-73
2022/10/18 08:05:27;;;;;;;57.88;55.67;;;10.60;79.90;;;;;;5019267;28;20081;-75
2022/10/18 08:07:53;;;;;;;58.25;56.05;;;10.50;79.20;;;;;;5035719;28;20024;-74
2022/10/18 08:10:20;;;;;;;56.58;54.47;;;10.40;79.00;;;;;;5033929;28;20029;-75
2022/10/18 08:12:46;;;;;;;59.42;57.22;;;10.40;79.20;;;;;;5017610;28;20021;-74
2022/10/18 08:15:12;;;;;;;60.20;57.90;;;10.50;80.30;;;;;;5037263;28;20530;-76
2022/10/18 08:17:38;;;;;;;63.83;61.42;;;10.60;79.50;;;;;;5036803;28;20026;-74
2022/10/18 08:20:04;;;;;;;64.72;62.33;;;10.60;79.20;;;;;;5038251;28;20104;-75
2022/10/18 08:22:31;;;;;;;66.85;64.35;;;10.50;79.20;;;;;;5015389;28;20026;-76
2022/10/18 08:24:56;;;;;;;61.20;58.90;;;10.50;79.30;;;;;;5037223;28;20033;-75
2022/10/18 08:27:25;;;;;;;54.25;52.15;;;10.60;80.00;;;;;;5038216;28;20157;-75
2022/10/18 08:29:51;;;;;;;45.67;43.95;;;11.20;81.90;;;;;;5032278;28;20025;-75
2022/10/18 08:32:17;;;;;;;;;;;12.20;83.10;;;;;;5038298;28;20025;-75
2022/10/18 08:34:42;;;;;;;30.98;29.77;;;13.50;83.50;;;;;;5035171;28;19947;-75
2022/10/18 08:37:08;;;;;;;30.85;29.65;;;14.80;83.10;;;;;;5036783;28;20048;-75
2022/10/18 08:39:34;;;;;;;;;;;15.80;82.40;;;;;;5035823;28;20044;-76
2022/10/18 08:42:11;;;;;;;13.63;13.02;;;16.80;82.40;;;;;;5035520;28;19909;-75
2022/10/18 08:44:48;;;;;;;16.80;16.10;;;17.80;82.10;;;;;;5016635;28;20116;-76
2022/10/18 08:47:16;;;;;;;;;;;18.50;81.60;;;;;;5037441;28;20180;-76
2022/10/18 08:49:55;;;;;;;7.82;7.43;;;19.00;81.40;;;;;;5021054;28;20362;-76
2022/10/18 08:52:46;;;;;;;8.05;7.65;;;19.20;80.90;;;;;;5021066;28;20387;-76
2022/10/18 08:55:22;;;;;;;6.80;6.40;;;19.00;80.50;;;;;;5036431;28;20137;-72
2022/10/18 08:57:49;;;;;;;10.45;9.95;;;18.70;80.60;;;;;;5038114;28;20384;-76
2022/10/18 09:00:18;;;;;;;11.10;10.60;;;18.20;80.50;;;;;;5039156;28;20037;-76
2022/10/18 09:03:06;;;;;;;12.45;11.88;;;18.00;81.10;;;;;;5020730;28;20027;-76
2022/10/18 09:05:53;;;;;;;13.38;12.77;;;17.70;81.60;;;;;;5020977;28;20091;-77
2022/10/18 09:08:38;;;;;;;16.70;16.00;;;17.50;81.70;;;;;;5020338;28;20036;-77
2022/10/18 09:11:08;;;;;;;14.27;13.68;;;17.50;82.50;;;;;;5021809;28;20052;-73
2022/10/18 09:13:52;;;;;;;10.88;10.38;;;18.00;83.50;;;;;;5018891;28;20018;-77
2022/10/18 09:16:33;;;;;;;8.68;8.27;;;18.20;82.80;;;;;;5020081;28;20022;-77
2022/10/18 09:19:53;;;;;;;13.40;12.80;;;18.20;82.20;;;;;;5021082;28;20021;-77
2022/10/18 09:22:24;;;;;;;11.80;11.30;;;18.10;82.20;;;;;;4982912;28;20037;-77
2022/10/18 09:25:11;;;;;;;10.15;9.65;;;18.70;83.60;;;;;;5023120;28;20100;-77
2022/10/18 09:27:48;;;;;;;5.95;5.65;;;19.50;84.50;;;;;;5034052;28;20017;-77
2022/10/18 09:30:57;;;;;;;4.30;4.00;;;20.30;83.30;;;;;;5036946;28;20075;-77
2022/10/18 09:33:52;;;;;;;3.95;3.65;;;20.50;82.30;;;;;;5023240;28;20468;-77
2022/10/18 09:36:25;;;;;;;6.72;6.32;;;20.10;81.50;;;;;;5019896;28;20029;-77
2022/10/18 09:38:58;;;;;;;6.45;6.05;;;19.70;82.00;;;;;;5040328;28;20075;-66
2022/10/18 09:41:24;;;;;;;16.83;16.13;;;19.30;82.20;;;;;;5022758;28;20032;-78
2022/10/18 09:43:59;;;;;;;;;;;19.20;83.50;;;;;;5038999;28;20448;-77
2022/10/18 09:46:31;;;;;;;8.27;7.88;;;19.80;84.60;;;;;;5033275;28;19904;-78
2022/10/18 09:49:31;;;;;;;7.90;7.50;;;20.60;84.60;;;;;;5012183;28;20356;-78
2022/10/18 09:52:02;;;;;;;2.72;2.53;;;21.50;85.00;;;;;;5029998;28;20021;-78
2022/10/18 09:54:37;;;;;;;3.47;3.25;;;21.70;82.80;;;;;;5029836;28;20025;-77
2022/10/18 09:57:32;;;;;;;5.20;4.90;;;21.40;82.90;;;;;;5028736;28;20037;-78
2022/10/18 10:00:00;;;;;;;4.45;4.15;;;21.40;83.70;;;;;;5028917;28;20368;-78
2022/10/18 10:02:26;;;;;;;3.63;3.40;;;22.10;84.90;;;;;;5011363;28;20477;-75
2022/10/18 10:04:55;;;;;;;2.72;2.53;;;22.60;84.10;;;;;;5029599;28;20029;-68
2022/10/18 10:07:25;;;;;;;2.22;2.05;;;23.00;84.30;;;;;;5029681;28;20461;-76
2022/10/18 10:10:14;;;;;;;1.70;1.60;;;23.60;84.10;;;;;;5029352;28;20475;-74
2022/10/18 10:12:40;;;;;;;0.60;0.60;;;23.90;83.70;;;;;;5011117;28;20041;-73
2022/10/18 10:15:22;;;;;;;0.15;0.15;;;24.10;83.30;;;;;;5011527;28;20109;-75
2022/10/18 10:18:00;;;;;;;0.10;0.10;;;23.70;83.20;;;;;;5029347;28;20463;-75
2022/10/18 10:20:43;;;;;;;0.25;0.25;;;23.30;82.80;;;;;;5029404;28;20026;-76
2022/10/18 10:23:18;;;;;;;0.00;0.00;;;23.20;83.60;;;;;;5039956;28;20013;-75
2022/10/18 10:25:52;;;;;;;0.10;0.10;;;23.00;83.30;;;;;;5035640;28;20119;-75
2022/10/18 10:28:26;;;;;;;0.10;0.10;;;22.60;83.70;;;;;;5036511;28;20380;-73
2022/10/18 10:30:52;;;;;;;0.00;0.00;;;22.40;83.80;;;;;;5039795;28;20104;-74
2022/10/18 10:33:38;;;;;;;0.00;0.00;;;22.10;83.50;;;;;;5038872;28;20429;-78
2022/10/18 10:36:14;;;;;;;0.00;0.00;;;21.70;83.50;;;;;;5037617;28;20045;-74
2022/10/18 10:38:40;;;;;;;0.00;0.00;;;21.40;84.00;;;;;;5038428;28;20383;-74
2022/10/18 10:41:19;;;;;;;;;;;21.40;84.30;;;;;;5040349;28;20018;-69
2022/10/18 10:43:45;;;;;;;0.10;0.10;;;21.40;84.00;;;;;;5030104;28;19909;-78
2022/10/18 10:46:14;;;;;;;0.10;0.10;;;21.20;84.40;;;;;;5040858;28;20037;-78
2022/10/18 10:48:46;;;;;;;0.10;0.10;;;21.60;85.30;;;;;;5023942;28;20479;-78
2022/10/18 10:51:14;;;;;;;0.03;0.03;;;22.30;85.70;;;;;;5041968;28;20336;-78
2022/10/18 10:54:20;;;;;;;0.00;0.00;;;23.00;85.50;;;;;;5030970;28;20117;-78
2022/10/18 10:57:11;;;;;;;0.00;0.00;;;23.60;85.20;;;;;;5039162;28;20035;-77
2022/10/18 10:59:44;;;;;;;0.00;0.00;;;24.30;85.10;;;;;;5029031;28;20097;-74
2022/10/18 11:02:13;;;;;;;0.00;0.00;;;24.80;84.50;;;;;;5039649;28;20018;-76
2022/10/18 11:04:40;;;;;;;0.00;0.00;;;25.10;84.10;;;;;;5032443;28;20025;-76
2022/10/18 11:07:27;;;;;;;0.00;0.00;;;24.80;82.80;;;;;;5002744;28;20025;-76
2022/10/18 11:09:57;;;;;;;0.00;0.00;;;24.20;82.20;;;;;;5020329;28;20026;-76
2022/10/18 11:12:46;;;;;;;0.10;0.00;;;23.40;82.40;;;;;;5041585;28;20045;-77
2022/10/18 11:15:14;;;;;;;0.00;0.00;;;22.70;82.60;;;;;;5048295;28;20702;-75
2022/10/18 11:18:07;;;;;;;0.00;0.00;;;22.10;82.60;;;;;;5030322;28;20033;-76
2022/10/18 11:20:55;;;;;;;0.00;0.00;;;21.50;83.00;;;;;;5030237;28;20025;-74
2022/10/18 11:23:29;;;;;;;0.00;0.00;;;21.20;83.60;;;;;;5048252;28;20079;-74
2022/10/18 11:26:11;;;;;;;0.00;0.00;;;20.90;83.70;;;;;;5048527;28;20078;-73
2022/10/18 11:29:04;;;;;;;0.00;0.00;;;20.70;83.70;;;;;;5048168;28;20106;-74
2022/10/18 11:32:01;;;;;;;0.00;0.00;;;20.80;83.70;;;;;;5047850;28;20486;-74
2022/10/18 11:35:00;;;;;;;0.10;0.03;;;20.70;83.70;;;;;;4995957;28;20039;-75
2022/10/18 11:37:42;;;;;;;0.00;0.00;;;20.80;83.60;;;;;;5047819;28;20025;-74
2022/10/18 11:40:13;;;;;;;0.00;0.00;;;21.00;83.40;;;;;;5044631;28;20103;-76
2022/10/18 11:43:04;;;;;;;0.00;0.00;;;21.10;83.70;;;;;;5048757;28;20029;-78
2022/10/18 11:45:40;;;;;;;0.00;0.00;;;21.50;83.70;;;;;;5048503;28;20406;-72
2022/10/18 11:48:33;;;;;;;0.00;0.00;;;21.70;83.20;;;;;;5029556;28;20025;-74
2022/10/18 11:51:31;;;;;;;0.00;0.00;;;22.20;84.30;;;;;;5048065;28;20104;-77
2022/10/18 11:54:23;;;;;;;0.03;0.03;;;23.10;84.80;;;;;;5008712;28;20037;-73
2022/10/18 11:57:13;;;;;;;0.00;0.00;;;24.10;84.60;;;;;;5033728;28;20455;-74
2022/10/18 11:59:50;;;;;;;0.00;0.00;;;24.70;83.70;;;;;;5028711;28;20034;-74
2022/10/18 12:02:43;;;;;;;0.00;0.00;;;25.00;83.90;;;;;;5048542;28;20025;-71
2022/10/18 12:05:10;;;;;;;0.00;0.00;;;25.30;84.20;;;;;;5047264;28;20023;-73
2022/10/18 12:07:42;;;;;;;0.00;0.00;;;25.60;84.20;;;;;;5047006;28;20029;-72
2022/10/18 12:10:14;;;;;;;0.00;0.00;;;25.10;83.10;;;;;;5047189;28;20025;-74
2022/10/18 12:12:49;;;;;;;0.00;0.00;;;24.10;82.60;;;;;;5046905;28;20017;-72
2022/10/18 12:15:17;;;;;;;0.00;0.00;;;23.10;82.90;;;;;;5047491;28;20764;-75
2022/10/18 12:18:09;;;;;;;0.00;0.00;;;22.30;83.50;;;;;;5026650;28;20420;-77
2022/10/18 12:20:44;;;;;;;0.00;0.00;;;21.90;84.70;;;;;;5021379;28;20024;-78
2022/10/18 12:23:29;;;;;;;0.00;0.00;;;21.80;84.80;;;;;;5037232;28;20127;-76
2022/10/18 12:26:00;;;;;;;0.00;0.00;;;21.80;84.60;;;;;;5037489;28;20017;-76
2022/10/18 12:28:50;;;;;;;0.00;0.00;;;21.80;84.30;;;;;;5037387;28;20025;-76
2022/10/18 12:31:25;;;;;;;0.00;0.00;;;21.90;84.30;;;;;;5031093;28;20391;-75
2022/10/18 12:33:55;;;;;;;0.00;0.00;;;22.10;85.10;;;;;;5020571;28;20080;-79
2022/10/18 12:36:20;;;;;;;0.00;0.00;;;22.30;84.70;;;;;;5021632;28;20021;-77
2022/10/18 12:39:04;;;;;;;0.00;0.00;;;22.30;84.90;;;;;;5015915;28;20446;-77
2022/10/18 12:41:33;;;;;;;0.00;0.00;;;22.30;84.70;;;;;;5021462;28;20056;-76
2022/10/18 12:44:26;;;;;;;0.00;0.00;;;22.30;84.70;;;;;;5030788;28;20712;-76
2022/10/18 12:46:54;;;;;;;0.00;0.00;;;22.30;84.40;;;;;;5022119;28;20033;-77
2022/10/18 12:49:36;;;;;;;0.00;0.00;;;22.30;84.30;;;;;;5031511;28;20028;-75
2022/10/18 12:52:06;;;;;;;0.00;0.00;;;22.20;84.30;;;;;;5031269;28;20117;-78
2022/10/18 12:54:34;;;;;;;0.00;0.00;;;22.20;84.20;;;;;;5031376;28;20021;-74
2022/10/18 12:57:03;;;;;;;0.00;0.00;;;22.00;84.00;;;;;;5030861;28;20117;-75
2022/10/18 12:59:28;;;;;;;0.00;0.00;;;21.90;84.80;;;;;;5010968;28;20045;-77
2022/10/18 13:01:54;;;;;;;0.00;0.00;;;22.10;85.00;;;;;;5028982;28;20028;-77
2022/10/18 13:04:32;;;;;;;0.00;0.00;;;22.10;84.40;;;;;;5029429;28;20025;-75
2022/10/18 13:07:04;;;;;;;0.00;0.00;;;21.90;84.20;;;;;;5035985;28;20420;-78